Flight Track Log - Related Links

Times and Time Zones

All times are in EST time to prevent confusion due to time zone crossing. See the N165JH flight status page for this flight to view local times or setup timezone preferences in your user account.

Time Position Orientation Groundspeed Altitude Reporting Facility
EST Latitude Longitude Course Direction KTS MPH feet Rate Location/Type
Tue 02:19:07 PM 34.0500 -84.6000 90° East 144 166 2,700  Level Atlanta TRACON
Tue 02:19:55 PM 34.0500 -84.5667 90° East 151 174 3,200 579 Climbing Atlanta TRACON
Tue 02:21:01 PM 34.0667 -84.5000 73° East 161 185 3,800 500 Climbing Atlanta TRACON
Tue 02:21:55 PM 34.0667 -84.4667 90° East 172 198 4,200 474 Climbing Atlanta TRACON
Tue 02:22:55 PM 34.0667 -84.4000 90° East 175 201 4,700 526 Climbing Atlanta TRACON
Tue 02:23:49 PM 34.0667 -84.3500 90° East 179 206 5,200 500 Climbing Atlanta TRACON
Tue 02:24:00 PM 34.1252 -84.3043 90° East  Level Estimated
Tue 02:24:55 PM 34.0500 -84.2833 107° East 190 219 5,700  Level Atlanta TRACON
Tue 02:25:55 PM 34.0500 -84.2167 90° East 186 214 6,200 550 Climbing Atlanta TRACON
Tue 02:26:55 PM 34.0500 -84.1667 90° East 176 203 6,800 400 Climbing Atlanta TRACON
Tue 02:27:55 PM 34.0333 -84.1000 107° East 174 200 7,000 105 Climbing Atlanta TRACON
Tue 02:28:49 PM 34.0333 -84.0500 90° East 180 207 7,000  Level Atlanta TRACON
Tue 02:29:55 PM 34.0167 -83.9833 107° East 180 207 7,000  Level Atlanta TRACON
Tue 02:30:55 PM 34.0000 -83.9333 112° Southeast 179 206 7,000 50 Level Atlanta TRACON
Tue 02:31:55 PM 34.0000 -83.8667 90° East 188 216 7,100 50 Climbing Atlanta TRACON
Tue 02:32:55 PM 34.0167 -83.8167 68° East 188 216 7,100  Level Atlanta TRACON
Tue 02:33:55 PM 34.0500 -83.7667 51° Northeast 188 216 7,100  Level Atlanta TRACON
Tue 02:34:50 PM 34.0667 -83.7167 68° East 188 216 7,100  Level Atlanta TRACON
Tue 02:35:56 PM 34.1000 -83.6500 59° Northeast 189 217 7,100  Level Atlanta TRACON
Tue 02:36:56 PM 34.1167 -83.6000 68° East 189 217 7,100  Level Atlanta TRACON
Tue 02:37:56 PM 34.1500 -83.5333 59° Northeast 189 217 7,100  Level Atlanta TRACON
Tue 02:39:23 PM 34.1728 -83.4539 71° East 204 235 7,100  Level Atlanta Center
Tue 02:40:23 PM 34.1933 -83.3958 67° East 194 223 7,100  Level Atlanta Center
Tue 02:41:23 PM 34.2181 -83.3406 62° Northeast 189 217 7,100  Level Atlanta Center
Tue 02:42:23 PM 34.2364 -83.2825 69° East 189 217 7,100  Level Atlanta Center
Tue 02:43:23 PM 34.2550 -83.2319 66° East 189 217 7,100  Level Atlanta Center
Tue 02:44:23 PM 34.2775 -83.1739 65° Northeast 189 217 7,100 -50 Level Atlanta Center
Tue 02:45:23 PM 34.3147 -83.1258 47° Northeast 184 212 7,000  Descending Atlanta Center
Tue 02:46:23 PM 34.3478 -83.0803 49° Northeast 184 212 7,100 50 Climbing Atlanta Center
Tue 02:47:23 PM 34.3828 -83.0294 50° Northeast 184 212 7,100  Level Atlanta Center
Tue 02:48:23 PM 34.4158 -82.9811 50° Northeast 184 212 7,100  Level Atlanta Center
Tue 02:49:23 PM 34.4508 -82.9331 49° Northeast 184 212 7,100  Level Atlanta Center
Tue 02:50:23 PM 34.4839 -82.8847 50° Northeast 184 212 7,100  Level Atlanta Center
Tue 02:51:23 PM 34.5167 -82.8339 52° Northeast 184 212 7,100  Level Atlanta Center
Tue 02:52:23 PM 34.5497 -82.7878 49° Northeast 184 212 7,100  Level Atlanta Center
Tue 02:53:23 PM 34.5847 -82.7394 49° Northeast 184 212 7,100 -150 Level Atlanta Center
Tue 02:54:23 PM 34.6175 -82.6858 53° Northeast 184 212 6,800 -400 Descending Atlanta Center
Tue 02:55:23 PM 34.6544 -82.6347 49° Northeast 189 217 6,300 100 Descending Atlanta Center
Tue 02:56:23 PM 34.6872 -82.5889 49° Northeast 189 217 7,000 700 Climbing Atlanta Center
Tue 02:58:00 PM 34.7336 -82.5164 51° Northeast  Level FlightAware Approximate
Tue 03:05:00 PM 34.8333 -82.3500 90° East  Level FlightAware Approximate
Tue 03:06:00 PM 34.8479 -82.3500 90° East  Level Estimated
Tue 03:07:00 PM 34.8479 -82.3500 90° East  Level Estimated
Tue 03:08:00 PM 34.8479 -82.3500 90° East  Level Estimated
Tue 03:09:00 PM 34.8479 -82.3500 90° East  Level Estimated
Tue 03:10:00 PM 34.8479 -82.3500 90° East  Level Estimated
Tue 03:11:00 PM 34.8479 -82.3500 90° East  Level Estimated

Login

Don't have an account? Register now (free) for customized features, flight alerts, and more!